Terminal Aerodrome Forecast
Issued by NWS

Home | Current Version | Previous Version | Text Only | Print | Product List | Glossary On
Versions: 1 2 3 4 5 6 7 8 9 10 11 12 13 14 15 16 17 18 19 20 21 22
867
FTAK31 PAJN 041151 AAA
TAFAPG
TAF AMD
PAPG 041151Z 0412/0512 25003KT 6SM BR VCSH SCT001 SCT060
      TEMPO 0412/0413 00000KT 1SM BR BKN001
     FM041300 VRB03KT 6SM -SHSN BR SCT002 BKN025 OVC060
      TEMPO 0413/0416 2SM -SHSN BR BKN002 OVC025
     FM041600 06005KT P6SM VCFG FEW005 SCT060
     FM042200 VRB03KT P6SM SKC
      AMD LTD TO CLD VIS AND WIND 0412/0415=

USA.gov is the U.S. government's official web portal to all federal, state and local government web resources and services.